sensor_id;sensor_type;location;lat;lon;timestamp;pressure;altitude;pressure_sealevel;temperature;humidity
82262;BME280;71861;52.364;6.580;2023-09-19T03:01:31;100804.91;;;13.92;88.23
82262;BME280;71861;52.364;6.580;2023-09-19T03:03:57;100806.31;;;13.95;88.49
82262;BME280;71861;52.364;6.580;2023-09-19T03:06:22;100804.53;;;13.95;88.34
82262;BME280;71861;52.364;6.580;2023-09-19T03:08:49;100808.41;;;13.99;88.19
82262;BME280;71861;52.364;6.580;2023-09-19T03:11:17;100803.16;;;13.99;87.82
82262;BME280;71861;52.364;6.580;2023-09-19T03:13:50;100801.56;;;13.98;87.38
82262;BME280;71861;52.364;6.580;2023-09-19T03:16:15;100798.13;;;13.98;87.49
82262;BME280;71861;52.364;6.580;2023-09-19T03:18:40;100798.13;;;13.98;87.33
82262;BME280;71861;52.364;6.580;2023-09-19T03:21:06;100811.19;;;13.98;87.17
82262;BME280;71861;52.364;6.580;2023-09-19T03:23:31;100806.97;;;13.97;86.72
82262;BME280;71861;52.364;6.580;2023-09-19T03:25:56;100809.75;;;13.95;86.75
82262;BME280;71861;52.364;6.580;2023-09-19T03:28:22;100817.78;;;13.94;86.45
82262;BME280;71861;52.364;6.580;2023-09-19T03:31:17;100811.09;;;13.91;86.31
82262;BME280;71861;52.364;6.580;2023-09-19T03:33:42;100818.31;;;13.89;86.10
82262;BME280;71861;52.364;6.580;2023-09-19T03:36:08;100813.44;;;13.86;86.21
82262;BME280;71861;52.364;6.580;2023-09-19T03:38:33;100817.84;;;13.86;85.82
82262;BME280;71861;52.364;6.580;2023-09-19T03:41:00;100817.03;;;13.85;85.79
82262;BME280;71861;52.364;6.580;2023-09-19T03:43:26;100812.16;;;13.82;85.63
82262;BME280;71861;52.364;6.580;2023-09-19T03:45:52;100802.09;;;13.79;85.58
82262;BME280;71861;52.364;6.580;2023-09-19T03:48:19;100804.88;;;13.78;85.04
82262;BME280;71861;52.364;6.580;2023-09-19T03:50:44;100798.84;;;13.77;84.90
82262;BME280;71861;52.364;6.580;2023-09-19T03:53:10;100798.84;;;13.77;84.69
82262;BME280;71861;52.364;6.580;2023-09-19T03:55:35;100795.97;;;13.72;84.65
82262;BME280;71861;52.364;6.580;2023-09-19T03:58:01;100803.16;;;13.70;83.95
82262;BME280;71861;52.364;6.580;2023-09-19T04:00:27;100811.81;;;13.71;84.09
82262;BME280;71861;52.364;6.580;2023-09-19T04:02:52;100802.88;;;13.65;83.94
82262;BME280;71861;52.364;6.580;2023-09-19T04:05:18;100795.41;;;13.62;83.87
82262;BME280;71861;52.364;6.580;2023-09-19T04:07:44;100787.31;;;13.57;83.74
82262;BME280;71861;52.364;6.580;2023-09-19T04:10:09;100788.00;;;13.51;83.31
82262;BME280;71861;52.364;6.580;2023-09-19T04:12:37;100790.00;;;13.49;83.31
82262;BME280;71861;52.364;6.580;2023-09-19T04:15:06;100799.97;;;13.46;83.15
82262;BME280;71861;52.364;6.580;2023-09-19T04:17:32;100804.13;;;13.40;82.92
82262;BME280;71861;52.364;6.580;2023-09-19T04:20:00;100807.06;;;13.37;82.98
82262;BME280;71861;52.364;6.580;2023-09-19T04:22:26;100819.47;;;13.35;82.39
82262;BME280;71861;52.364;6.580;2023-09-19T04:24:51;100818.84;;;13.33;82.20
82262;BME280;71861;52.364;6.580;2023-09-19T04:27:16;100826.66;;;13.33;82.53
82262;BME280;71861;52.364;6.580;2023-09-19T04:29:44;100841.06;;;13.29;81.96
82262;BME280;71861;52.364;6.580;2023-09-19T04:32:09;100840.59;;;13.25;82.08
82262;BME280;71861;52.364;6.580;2023-09-19T04:34:35;100845.97;;;13.24;81.74
82262;BME280;71861;52.364;6.580;2023-09-19T04:37:00;100844.63;;;13.28;81.64
82262;BME280;71861;52.364;6.580;2023-09-19T04:39:27;100843.03;;;13.27;81.66
82262;BME280;71861;52.364;6.580;2023-09-19T04:41:53;100862.63;;;13.23;81.80
82262;BME280;71861;52.364;6.580;2023-09-19T04:44:18;100856.13;;;13.19;81.53
82262;BME280;71861;52.364;6.580;2023-09-19T04:46:44;100865.78;;;13.18;81.74
82262;BME280;71861;52.364;6.580;2023-09-19T04:49:10;100864.59;;;13.21;81.55
82262;BME280;71861;52.364;6.580;2023-09-19T04:51:36;100866.38;;;13.20;81.65
82262;BME280;71861;52.364;6.580;2023-09-19T04:54:01;100860.38;;;13.20;81.53
82262;BME280;71861;52.364;6.580;2023-09-19T04:56:28;100863.78;;;13.20;81.45
82262;BME280;71861;52.364;6.580;2023-09-19T04:58:54;100863.59;;;13.22;81.33
82262;BME280;71861;52.364;6.580;2023-09-19T05:01:19;100865.78;;;13.18;81.17
82262;BME280;71861;52.364;6.580;2023-09-19T05:03:48;100877.81;;;13.19;80.31
82262;BME280;71861;52.364;6.580;2023-09-19T05:06:17;100872.59;;;13.19;80.58
82262;BME280;71861;52.364;6.580;2023-09-19T05:08:43;100871.34;;;13.15;80.10
82262;BME280;71861;52.364;6.580;2023-09-19T05:11:08;100878.53;;;13.13;80.17
82262;BME280;71861;52.364;6.580;2023-09-19T05:13:34;100885.03;;;13.09;80.27
82262;BME280;71861;52.364;6.580;2023-09-19T05:16:00;100880.34;;;13.05;80.19
82262;BME280;71861;52.364;6.580;2023-09-19T05:18:27;100883.31;;;13.02;80.16
82262;BME280;71861;52.364;6.580;2023-09-19T05:20:52;100870.94;;;12.96;79.52
82262;BME280;71861;52.364;6.580;2023-09-19T05:23:18;100876.13;;;12.96;80.08
82262;BME280;71861;52.364;6.580;2023-09-19T05:25:46;100859.44;;;12.82;79.73
82262;BME280;71861;52.364;6.580;2023-09-19T05:28:11;100881.06;;;12.91;80.14
82262;BME280;71861;52.364;6.580;2023-09-19T05:30:40;100883.66;;;12.91;79.80
82262;BME280;71861;52.364;6.580;2023-09-19T05:33:06;100870.00;;;12.89;79.18
82262;BME280;71861;52.364;6.580;2023-09-19T05:35:31;100881.34;;;12.96;79.24
82262;BME280;71861;52.364;6.580;2023-09-19T05:37:57;100885.44;;;12.98;79.47
82262;BME280;71861;52.364;6.580;2023-09-19T05:40:23;100891.44;;;12.99;79.36
82262;BME280;71861;52.364;6.580;2023-09-19T05:42:49;100894.72;;;13.01;78.89
82262;BME280;71861;52.364;6.580;2023-09-19T05:45:15;100891.59;;;13.05;79.10
82262;BME280;71861;52.364;6.580;2023-09-19T05:47:47;100894.03;;;13.07;79.31
82262;BME280;71861;52.364;6.580;2023-09-19T05:50:13;100873.81;;;13.09;78.54
82262;BME280;71861;52.364;6.580;2023-09-19T05:52:40;100877.34;;;13.16;78.81
82262;BME280;71861;52.364;6.580;2023-09-19T05:55:07;100877.00;;;13.19;78.16
82262;BME280;71861;52.364;6.580;2023-09-19T05:57:34;100866.03;;;13.23;78.36
82262;BME280;71861;52.364;6.580;2023-09-19T05:59:59;100870.38;;;13.31;78.04
82262;BME280;71861;52.364;6.580;2023-09-19T06:02:24;100873.94;;;13.38;78.04
82262;BME280;71861;52.364;6.580;2023-09-19T06:04:54;100876.66;;;13.45;77.54
82262;BME280;71861;52.364;6.580;2023-09-19T06:07:21;100889.63;;;13.53;77.86
82262;BME280;71861;52.364;6.580;2023-09-19T06:09:47;100878.69;;;13.57;77.40
82262;BME280;71861;52.364;6.580;2023-09-19T06:12:12;100890.22;;;13.63;77.25
82262;BME280;71861;52.364;6.580;2023-09-19T06:14:40;100885.63;;;13.65;76.46
82262;BME280;71861;52.364;6.580;2023-09-19T06:17:06;100901.91;;;13.67;76.42
82262;BME280;71861;52.364;6.580;2023-09-19T06:19:31;100907.78;;;13.69;77.11
82262;BME280;71861;52.364;6.580;2023-09-19T06:21:58;100914.81;;;13.68;77.27
82262;BME280;71861;52.364;6.580;2023-09-19T06:24:24;100923.47;;;13.69;77.23
82262;BME280;71861;52.364;6.580;2023-09-19T06:26:50;100922.03;;;13.66;77.19
82262;BME280;71861;52.364;6.580;2023-09-19T06:29:17;100921.38;;;13.64;77.26
82262;BME280;71861;52.364;6.580;2023-09-19T06:31:43;100917.31;;;13.62;76.81
82262;BME280;71861;52.364;6.580;2023-09-19T06:34:09;100929.22;;;13.64;77.20
82262;BME280;71861;52.364;6.580;2023-09-19T06:36:35;100924.00;;;13.64;77.46
82262;BME280;71861;52.364;6.580;2023-09-19T06:39:00;100929.69;;;13.68;77.66
82262;BME280;71861;52.364;6.580;2023-09-19T06:41:25;100923.09;;;13.72;77.71
82262;BME280;71861;52.364;6.580;2023-09-19T06:43:51;100926.66;;;13.79;77.62
82262;BME280;71861;52.364;6.580;2023-09-19T06:46:18;100927.84;;;13.91;77.87
82262;BME280;71861;52.364;6.580;2023-09-19T06:48:44;100933.78;;;13.99;77.89
82262;BME280;71861;52.364;6.580;2023-09-19T06:51:09;100936.81;;;14.11;77.10
82262;BME280;71861;52.364;6.580;2023-09-19T06:53:35;100930.97;;;14.23;76.91
82262;BME280;71861;52.364;6.580;2023-09-19T06:56:02;100925.94;;;14.36;76.80
82262;BME280;71861;52.364;6.580;2023-09-19T06:58:27;100917.00;;;14.45;75.35
82262;BME280;71861;52.364;6.580;2023-09-19T07:00:52;100910.50;;;14.56;74.99
82262;BME280;71861;52.364;6.580;2023-09-19T07:03:19;100914.69;;;14.65;74.91
82262;BME280;71861;52.364;6.580;2023-09-19T07:05:47;100914.66;;;14.79;74.04
82262;BME280;71861;52.364;6.580;2023-09-19T07:08:13;100908.56;;;14.93;74.03
82262;BME280;71861;52.364;6.580;2023-09-19T07:10:39;100910.78;;;15.11;74.17
82262;BME280;71861;52.364;6.580;2023-09-19T07:13:07;100913.13;;;15.21;73.65
82262;BME280;71861;52.364;6.580;2023-09-19T07:15:37;100912.84;;;15.37;74.19
82262;BME280;71861;52.364;6.580;2023-09-19T07:18:06;100921.69;;;15.50;72.78
82262;BME280;71861;52.364;6.580;2023-09-19T07:20:32;100923.34;;;15.58;73.01
82262;BME280;71861;52.364;6.580;2023-09-19T07:22:59;100915.94;;;15.61;72.82
82262;BME280;71861;52.364;6.580;2023-09-19T07:25:25;100925.47;;;15.69;72.33
82262;BME280;71861;52.364;6.580;2023-09-19T07:27:51;100907.00;;;15.77;71.78
82262;BME280;71861;52.364;6.580;2023-09-19T07:30:16;100908.25;;;15.81;71.30
82262;BME280;71861;52.364;6.580;2023-09-19T07:32:42;100901.06;;;15.89;71.86
82262;BME280;71861;52.364;6.580;2023-09-19T07:35:07;100897.09;;;16.00;71.65
82262;BME280;71861;52.364;6.580;2023-09-19T07:37:33;100906.81;;;16.06;71.32
82262;BME280;71861;52.364;6.580;2023-09-19T07:39:59;100915.56;;;16.13;71.65
82262;BME280;71861;52.364;6.580;2023-09-19T07:42:26;100911.78;;;16.22;70.94
82262;BME280;71861;52.364;6.580;2023-09-19T07:44:51;100922.13;;;16.30;71.29
82262;BME280;71861;52.364;6.580;2023-09-19T07:47:19;100928.81;;;16.39;71.30
82262;BME280;71861;52.364;6.580;2023-09-19T07:49:46;100927.06;;;16.46;71.53
82262;BME280;71861;52.364;6.580;2023-09-19T07:52:13;100930.56;;;16.53;70.88
82262;BME280;71861;52.364;6.580;2023-09-19T07:54:38;100925.13;;;16.54;70.83
82262;BME280;71861;52.364;6.580;2023-09-19T07:57:06;100934.16;;;16.52;70.75
82262;BME280;71861;52.364;6.580;2023-09-19T07:59:32;100941.50;;;16.63;71.22
82262;BME280;71861;52.364;6.580;2023-09-19T08:01:58;100940.31;;;16.72;70.62
82262;BME280;71861;52.364;6.580;2023-09-19T08:04:23;100940.75;;;16.76;69.84
82262;BME280;71861;52.364;6.580;2023-09-19T08:06:51;100944.59;;;16.80;69.84
82262;BME280;71861;52.364;6.580;2023-09-19T08:09:17;100953.28;;;16.80;69.95
82262;BME280;71861;52.364;6.580;2023-09-19T08:11:48;100949.44;;;16.76;70.11
82262;BME280;71861;52.364;6.580;2023-09-19T08:14:15;100942.97;;;16.79;69.59
82262;BME280;71861;52.364;6.580;2023-09-19T08:16:41;100949.66;;;16.88;69.81
82262;BME280;71861;52.364;6.580;2023-09-19T08:19:09;100950.69;;;16.87;69.67
82262;BME280;71861;52.364;6.580;2023-09-19T08:21:35;100946.53;;;17.05;70.04
82262;BME280;71861;52.364;6.580;2023-09-19T08:24:01;100944.53;;;17.20;69.36
82262;BME280;71861;52.364;6.580;2023-09-19T08:26:29;100947.81;;;17.35;68.76
82262;BME280;71861;52.364;6.580;2023-09-19T08:28:56;100951.44;;;17.34;68.66
82262;BME280;71861;52.364;6.580;2023-09-19T08:31:21;100950.25;;;17.43;67.95
82262;BME280;71861;52.364;6.580;2023-09-19T08:33:47;100949.06;;;17.52;66.98
82262;BME280;71861;52.364;6.580;2023-09-19T08:36:14;100956.78;;;17.60;67.81
82262;BME280;71861;52.364;6.580;2023-09-19T08:38:40;100951.53;;;17.86;67.61
82262;BME280;71861;52.364;6.580;2023-09-19T08:41:06;100955.59;;;18.02;66.62
82262;BME280;71861;52.364;6.580;2023-09-19T08:43:35;100945.84;;;18.28;66.19
82262;BME280;71861;52.364;6.580;2023-09-19T08:48:34;100951.00;;;18.81;63.67
82262;BME280;71861;52.364;6.580;2023-09-19T08:51:07;100930.69;;;18.94;63.19
82262;BME280;71861;52.364;6.580;2023-09-19T08:54:00;100944.38;;;19.09;62.23
82262;BME280;71861;52.364;6.580;2023-09-19T08:56:29;100947.53;;;19.31;62.94
82262;BME280;71861;52.364;6.580;2023-09-19T08:58:57;100944.53;;;19.58;61.04
82262;BME280;71861;52.364;6.580;2023-09-19T09:01:27;100947.47;;;19.75;61.73
82262;BME280;71861;52.364;6.580;2023-09-19T09:03:53;100945.47;;;19.95;60.92
82262;BME280;71861;52.364;6.580;2023-09-19T09:06:20;100943.72;;;20.14;60.11
82262;BME280;71861;52.364;6.580;2023-09-19T09:08:46;100931.94;;;20.10;59.58
82262;BME280;71861;52.364;6.580;2023-09-19T09:11:12;100930.91;;;20.11;59.98
82262;BME280;71861;52.364;6.580;2023-09-19T09:13:38;100936.03;;;20.06;59.90
82262;BME280;71861;52.364;6.580;2023-09-19T09:16:07;100938.84;;;20.11;60.00
82262;BME280;71861;52.364;6.580;2023-09-19T09:18:33;100952.00;;;20.17;60.56
82262;BME280;71861;52.364;6.580;2023-09-19T09:20:58;100945.72;;;20.12;61.17
82262;BME280;71861;52.364;6.580;2023-09-19T09:23:26;100948.50;;;20.23;60.38
82262;BME280;71861;52.364;6.580;2023-09-19T09:25:55;100941.56;;;19.98;60.07
82262;BME280;71861;52.364;6.580;2023-09-19T09:28:23;100947.66;;;19.73;60.85
82262;BME280;71861;52.364;6.580;2023-09-19T09:30:49;100936.88;;;19.50;61.36
82262;BME280;71861;52.364;6.580;2023-09-19T09:33:16;100938.19;;;19.35;61.74
82262;BME280;71861;52.364;6.580;2023-09-19T09:38:23;100936.81;;;19.32;62.75
82262;BME280;71861;52.364;6.580;2023-09-19T09:40:56;100930.97;;;19.55;61.69
82262;BME280;71861;52.364;6.580;2023-09-19T09:43:28;100930.25;;;19.72;60.82
82262;BME280;71861;52.364;6.580;2023-09-19T09:46:12;100933.94;;;19.89;61.19
82262;BME280;71861;52.364;6.580;2023-09-19T09:49:03;100940.13;;;20.02;60.55
82262;BME280;71861;52.364;6.580;2023-09-19T09:54:16;100917.72;;;20.11;60.53
82262;BME280;71861;52.364;6.580;2023-09-19T09:56:59;100926.28;;;20.06;59.51
82262;BME280;71861;52.364;6.580;2023-09-19T09:59:47;100925.31;;;19.76;59.72
82262;BME280;71861;52.364;6.580;2023-09-19T10:02:18;100929.03;;;19.93;60.08
82262;BME280;71861;52.364;6.580;2023-09-19T10:04:53;100923.50;;;20.01;59.46
82262;BME280;71861;52.364;6.580;2023-09-19T10:07:35;100928.72;;;20.32;59.62
82262;BME280;71861;52.364;6.580;2023-09-19T10:10:06;100937.63;;;20.31;59.34
82262;BME280;71861;52.364;6.580;2023-09-19T10:12:43;100927.22;;;20.36;59.08
82262;BME280;71861;52.364;6.580;2023-09-19T10:15:11;100932.13;;;20.33;59.86
82262;BME280;71861;52.364;6.580;2023-09-19T10:17:44;100925.03;;;20.33;57.16
82262;BME280;71861;52.364;6.580;2023-09-19T10:20:13;100926.28;;;20.49;57.30
82262;BME280;71861;52.364;6.580;2023-09-19T10:22:57;100920.34;;;20.53;57.75
82262;BME280;71861;52.364;6.580;2023-09-19T10:25:29;100929.50;;;20.69;58.21
82262;BME280;71861;52.364;6.580;2023-09-19T10:27:56;100919.53;;;20.53;55.88
82262;BME280;71861;52.364;6.580;2023-09-19T10:30:25;100921.56;;;20.33;57.44
82262;BME280;71861;52.364;6.580;2023-09-19T10:33:03;100913.25;;;20.36;58.43
82262;BME280;71861;52.364;6.580;2023-09-19T10:35:32;100917.78;;;20.47;57.72
82262;BME280;71861;52.364;6.580;2023-09-19T10:38:00;100922.00;;;20.30;58.15
82262;BME280;71861;52.364;6.580;2023-09-19T10:40:29;100926.09;;;19.83;57.53
82262;BME280;71861;52.364;6.580;2023-09-19T10:43:05;100923.50;;;19.52;57.71
82262;BME280;71861;52.364;6.580;2023-09-19T10:45:34;100929.28;;;19.36;59.33
82262;BME280;71861;52.364;6.580;2023-09-19T10:48:01;100921.78;;;19.26;60.85
82262;BME280;71861;52.364;6.580;2023-09-19T10:50:30;100922.59;;;19.27;61.16
82262;BME280;71861;52.364;6.580;2023-09-19T10:53:00;100924.22;;;19.34;60.34
82262;BME280;71861;52.364;6.580;2023-09-19T10:55:31;100915.13;;;19.61;60.30
82262;BME280;71861;52.364;6.580;2023-09-19T10:57:57;100909.97;;;19.66;59.66
82262;BME280;71861;52.364;6.580;2023-09-19T11:00:53;100892.38;;;19.85;58.72
82262;BME280;71861;52.364;6.580;2023-09-19T11:03:19;100897.94;;;20.02;58.66
82262;BME280;71861;52.364;6.580;2023-09-19T11:06:23;100901.66;;;19.94;57.50
82262;BME280;71861;52.364;6.580;2023-09-19T11:09:04;100915.84;;;19.93;57.76
82262;BME280;71861;52.364;6.580;2023-09-19T11:11:41;100906.56;;;19.91;56.88
82262;BME280;71861;52.364;6.580;2023-09-19T11:30:44;100885.63;;;19.71;59.33
82262;BME280;71861;52.364;6.580;2023-09-19T11:46:27;100878.09;;;19.50;58.84
82262;BME280;71861;52.364;6.580;2023-09-19T11:48:53;100881.50;;;19.57;59.34
82262;BME280;71861;52.364;6.580;2023-09-19T11:51:24;100867.44;;;19.63;58.95
82262;BME280;71861;52.364;6.580;2023-09-19T11:53:57;100833.03;;;19.58;58.30
82262;BME280;71861;52.364;6.580;2023-09-19T11:56:26;100867.13;;;19.53;58.03
82262;BME280;71861;52.364;6.580;2023-09-19T11:58:57;100885.56;;;19.53;59.88
82262;BME280;71861;52.364;6.580;2023-09-19T12:01:29;100873.63;;;19.50;59.00
82262;BME280;71861;52.364;6.580;2023-09-19T12:03:57;100873.69;;;19.44;59.30
82262;BME280;71861;52.364;6.580;2023-09-19T12:06:27;100863.81;;;19.33;58.93
82262;BME280;71861;52.364;6.580;2023-09-19T12:08:54;100880.66;;;19.32;60.30
82262;BME280;71861;52.364;6.580;2023-09-19T12:11:21;100872.97;;;19.24;59.53
82262;BME280;71861;52.364;6.580;2023-09-19T12:13:48;100875.00;;;19.22;59.83
82262;BME280;71861;52.364;6.580;2023-09-19T12:16:18;100876.72;;;19.10;60.22
82262;BME280;71861;52.364;6.580;2023-09-19T12:18:48;100870.16;;;19.19;60.81
82262;BME280;71861;52.364;6.580;2023-09-19T12:21:28;100880.63;;;19.38;59.81
82262;BME280;71861;52.364;6.580;2023-09-19T12:24:13;100874.38;;;19.57;59.76
82262;BME280;71861;52.364;6.580;2023-09-19T12:26:43;100850.19;;;19.85;58.75
82262;BME280;71861;52.364;6.580;2023-09-19T12:29:18;100822.38;;;20.07;56.64
82262;BME280;71861;52.364;6.580;2023-09-19T12:31:54;100839.34;;;20.36;56.91
82262;BME280;71861;52.364;6.580;2023-09-19T12:34:30;100859.69;;;20.47;58.09
82262;BME280;71861;52.364;6.580;2023-09-19T12:39:44;100842.34;;;20.39;56.69
82262;BME280;71861;52.364;6.580;2023-09-19T12:42:15;100848.50;;;20.33;56.16
82262;BME280;71861;52.364;6.580;2023-09-19T12:44:44;100836.78;;;20.29;56.06
82262;BME280;71861;52.364;6.580;2023-09-19T12:47:16;100840.38;;;20.35;57.13
82262;BME280;71861;52.364;6.580;2023-09-19T12:50:09;100834.19;;;20.41;55.81
82262;BME280;71861;52.364;6.580;2023-09-19T12:52:46;100840.00;;;20.31;54.96
82262;BME280;71861;52.364;6.580;2023-09-19T12:55:28;100838.53;;;20.35;56.89
82262;BME280;71861;52.364;6.580;2023-09-19T13:00:37;100827.00;;;20.30;55.73
82262;BME280;71861;52.364;6.580;2023-09-19T13:06:00;100834.31;;;20.10;57.14
82262;BME280;71861;52.364;6.580;2023-09-19T13:11:17;100839.44;;;19.86;57.54
82262;BME280;71861;52.364;6.580;2023-09-19T13:14:14;100831.00;;;19.78;57.93
82262;BME280;71861;52.364;6.580;2023-09-19T13:19:36;100832.38;;;19.62;58.05
82262;BME280;71861;52.364;6.580;2023-09-19T13:22:03;100824.25;;;19.64;58.01
82262;BME280;71861;52.364;6.580;2023-09-19T13:24:28;100836.25;;;19.60;58.42
82262;BME280;71861;52.364;6.580;2023-09-19T13:26:56;100821.31;;;19.54;58.48
82262;BME280;71861;52.364;6.580;2023-09-19T13:29:22;100831.94;;;19.41;58.53
82262;BME280;71861;52.364;6.580;2023-09-19T13:31:48;100832.84;;;19.28;59.22
82262;BME280;71861;52.364;6.580;2023-09-19T13:34:14;100834.50;;;19.23;59.56
82262;BME280;71861;52.364;6.580;2023-09-19T13:36:41;100837.38;;;19.15;59.89
82262;BME280;71861;52.364;6.580;2023-09-19T13:39:07;100825.69;;;19.11;59.95
82262;BME280;71861;52.364;6.580;2023-09-19T13:41:34;100833.19;;;19.07;60.59
82262;BME280;71861;52.364;6.580;2023-09-19T13:44:02;100825.75;;;18.98;59.69
82262;BME280;71861;52.364;6.580;2023-09-19T13:46:27;100832.63;;;18.99;60.62
82262;BME280;71861;52.364;6.580;2023-09-19T13:48:53;100838.31;;;18.96;61.01
82262;BME280;71861;52.364;6.580;2023-09-19T13:51:21;100832.28;;;18.89;59.84
82262;BME280;71861;52.364;6.580;2023-09-19T13:53:50;100842.81;;;18.89;60.84
82262;BME280;71861;52.364;6.580;2023-09-19T13:56:16;100829.25;;;18.85;60.36
82262;BME280;71861;52.364;6.580;2023-09-19T13:58:41;100833.28;;;18.88;60.29
82262;BME280;71861;52.364;6.580;2023-09-19T14:01:07;100840.94;;;18.96;61.01
82262;BME280;71861;52.364;6.580;2023-09-19T14:03:37;100841.97;;;18.95;59.80
82262;BME280;71861;52.364;6.580;2023-09-19T14:06:03;100832.19;;;19.02;59.85
82262;BME280;71861;52.364;6.580;2023-09-19T14:08:28;100827.31;;;19.05;59.92
82262;BME280;71861;52.364;6.580;2023-09-19T14:10:54;100820.41;;;19.11;59.60
82262;BME280;71861;52.364;6.580;2023-09-19T14:13:19;100829.09;;;19.11;59.21
82262;BME280;71861;52.364;6.580;2023-09-19T14:15:46;100821.84;;;19.07;59.17
82262;BME280;71861;52.364;6.580;2023-09-19T14:18:11;100832.78;;;19.04;59.94
82262;BME280;71861;52.364;6.580;2023-09-19T14:20:40;100834.25;;;19.00;60.09
82262;BME280;71861;52.364;6.580;2023-09-19T14:23:06;100829.00;;;18.93;60.30
82262;BME280;71861;52.364;6.580;2023-09-19T14:25:34;100830.06;;;18.92;60.42
82262;BME280;71861;52.364;6.580;2023-09-19T14:27:59;100825.56;;;18.93;59.88
82262;BME280;71861;52.364;6.580;2023-09-19T14:30:25;100820.66;;;19.03;60.42
82262;BME280;71861;52.364;6.580;2023-09-19T14:32:50;100827.59;;;19.28;59.37
82262;BME280;71861;52.364;6.580;2023-09-19T14:35:16;100809.31;;;19.33;59.70
82262;BME280;71861;52.364;6.580;2023-09-19T14:37:41;100824.56;;;19.49;59.59
82262;BME280;71861;52.364;6.580;2023-09-19T14:40:07;100811.94;;;19.58;59.09
82262;BME280;71861;52.364;6.580;2023-09-19T14:42:35;100813.47;;;19.65;59.08
82262;BME280;71861;52.364;6.580;2023-09-19T14:45:02;100813.00;;;19.75;58.87
82262;BME280;71861;52.364;6.580;2023-09-19T14:47:30;100809.69;;;19.79;58.55
82262;BME280;71861;52.364;6.580;2023-09-19T14:49:57;100803.53;;;19.85;58.23
82262;BME280;71861;52.364;6.580;2023-09-19T14:52:23;100803.47;;;19.92;58.98
82262;BME280;71861;52.364;6.580;2023-09-19T14:54:48;100803.41;;;19.99;58.90
82262;BME280;71861;52.364;6.580;2023-09-19T14:57:14;100797.94;;;20.00;59.10
82262;BME280;71861;52.364;6.580;2023-09-19T14:59:40;100794.47;;;20.00;58.80
82262;BME280;71861;52.364;6.580;2023-09-19T15:02:05;100790.94;;;20.06;59.43
82262;BME280;71861;52.364;6.580;2023-09-19T15:04:31;100779.81;;;20.04;57.71
82262;BME280;71861;52.364;6.580;2023-09-19T15:06:57;100777.28;;;19.97;58.32
82262;BME280;71861;52.364;6.580;2023-09-19T15:09:24;100782.38;;;19.92;58.77
82262;BME280;71861;52.364;6.580;2023-09-19T15:11:54;100771.09;;;19.85;58.99
82262;BME280;71861;52.364;6.580;2023-09-19T15:14:20;100785.03;;;19.74;59.43
82262;BME280;71861;52.364;6.580;2023-09-19T15:16:46;100774.59;;;19.61;58.90
82262;BME280;71861;52.364;6.580;2023-09-19T15:19:13;100785.97;;;19.61;59.73
82262;BME280;71861;52.364;6.580;2023-09-19T15:21:39;100788.47;;;19.50;59.28
82262;BME280;71861;52.364;6.580;2023-09-19T15:24:05;100789.78;;;19.41;59.48
82262;BME280;71861;52.364;6.580;2023-09-19T15:26:34;100788.00;;;19.35;59.71
82262;BME280;71861;52.364;6.580;2023-09-19T15:29:00;100786.63;;;19.32;60.10
82262;BME280;71861;52.364;6.580;2023-09-19T15:31:25;100793.72;;;19.32;60.59
82262;BME280;71861;52.364;6.580;2023-09-19T15:33:51;100797.19;;;19.26;60.44
82262;BME280;71861;52.364;6.580;2023-09-19T15:36:16;100803.53;;;19.18;59.63
82262;BME280;71861;52.364;6.580;2023-09-19T15:41:21;100788.78;;;19.11;60.58
82262;BME280;71861;52.364;6.580;2023-09-19T15:43:47;100805.81;;;19.08;60.71
82262;BME280;71861;52.364;6.580;2023-09-19T15:46:12;100808.44;;;19.08;61.15
82262;BME280;71861;52.364;6.580;2023-09-19T15:48:39;100805.84;;;19.02;61.35
82262;BME280;71861;52.364;6.580;2023-09-19T15:51:04;100819.66;;;18.97;61.51
82262;BME280;71861;52.364;6.580;2023-09-19T15:53:42;100818.69;;;18.92;61.19
82262;BME280;71861;52.364;6.580;2023-09-19T15:56:08;100815.47;;;18.90;61.09
82262;BME280;71861;52.364;6.580;2023-09-19T15:58:35;100809.81;;;18.86;61.46
82262;BME280;71861;52.364;6.580;2023-09-19T16:01:07;100815.72;;;18.82;61.38
82262;BME280;71861;52.364;6.580;2023-09-19T16:03:42;100809.22;;;18.84;61.67
82262;BME280;71861;52.364;6.580;2023-09-19T16:06:12;100813.28;;;18.80;61.73
82262;BME280;71861;52.364;6.580;2023-09-19T16:08:42;100814.53;;;18.78;61.34
82262;BME280;71861;52.364;6.580;2023-09-19T16:11:09;100807.66;;;18.77;61.66
82262;BME280;71861;52.364;6.580;2023-09-19T16:13:38;100793.06;;;18.74;62.07
82262;BME280;71861;52.364;6.580;2023-09-19T16:16:03;100811.13;;;18.71;61.77
82262;BME280;71861;52.364;6.580;2023-09-19T16:18:29;100806.06;;;18.69;62.09
82262;BME280;71861;52.364;6.580;2023-09-19T16:21:02;100806.88;;;18.70;62.24
82262;BME280;71861;52.364;6.580;2023-09-19T16:23:28;100810.53;;;18.69;62.17
82262;BME280;71861;52.364;6.580;2023-09-19T16:26:07;100810.97;;;18.66;62.38
82262;BME280;71861;52.364;6.580;2023-09-19T16:28:34;100807.09;;;18.68;62.53
82262;BME280;71861;52.364;6.580;2023-09-19T16:31:04;100810.34;;;18.64;62.72
82262;BME280;71861;52.364;6.580;2023-09-19T16:33:32;100817.22;;;18.65;62.66
82262;BME280;71861;52.364;6.580;2023-09-19T16:35:57;100809.75;;;18.62;62.50
82262;BME280;71861;52.364;6.580;2023-09-19T16:38:25;100809.53;;;18.63;62.51
82262;BME280;71861;52.364;6.580;2023-09-19T16:40:55;100823.50;;;18.64;62.29
82262;BME280;71861;52.364;6.580;2023-09-19T16:43:23;100821.09;;;18.62;62.89
82262;BME280;71861;52.364;6.580;2023-09-19T16:45:55;100821.31;;;18.61;63.06
82262;BME280;71861;52.364;6.580;2023-09-19T16:48:22;100827.19;;;18.56;63.05
82262;BME280;71861;52.364;6.580;2023-09-19T16:50:49;100823.16;;;18.54;63.44